createdAt,value
2023-05-06T00:00:03.696Z,5.80
2023-05-06T00:02:30.404Z,6.53
2023-05-06T00:04:57.159Z,6.38
2023-05-06T00:07:23.881Z,6.32
2023-05-06T00:09:50.490Z,7.72
2023-05-06T00:12:19.272Z,7.35
2023-05-06T00:14:45.787Z,8.48
2023-05-06T00:17:12.333Z,10.35
2023-05-06T00:19:39.028Z,8.38
2023-05-06T00:22:05.800Z,7.78
2023-05-06T00:24:32.427Z,7.63
2023-05-06T00:26:58.947Z,7.80
2023-05-06T00:29:25.612Z,7.88
2023-05-06T00:31:52.175Z,6.72
2023-05-06T00:34:18.767Z,6.15
2023-05-06T00:36:45.373Z,5.97
2023-05-06T00:39:11.911Z,6.20
2023-05-06T00:41:38.467Z,6.85
2023-05-06T00:44:05.027Z,7.28
2023-05-06T00:46:31.545Z,7.53
2023-05-06T00:48:58.219Z,6.18
2023-05-06T00:51:26.177Z,6.78
2023-05-06T00:53:52.952Z,7.60
2023-05-06T00:56:20.877Z,7.03
2023-05-06T00:58:48.250Z,7.30
2023-05-06T01:01:14.955Z,7.68
2023-05-06T01:03:41.648Z,7.85
2023-05-06T01:06:19.428Z,7.93
2023-05-06T01:09:01.001Z,7.72
2023-05-06T01:11:59.669Z,6.88
2023-05-06T01:14:39.588Z,7.32
2023-05-06T01:17:11.238Z,7.30
2023-05-06T01:20:06.322Z,7.75
2023-05-06T01:22:36.609Z,7.90
2023-05-06T01:25:03.220Z,9.02
2023-05-06T01:27:29.763Z,8.13
2023-05-06T01:29:57.620Z,10.68
2023-05-06T01:32:52.067Z,12.85
2023-05-06T01:35:32.259Z,10.75
2023-05-06T01:38:01.852Z,8.77
2023-05-06T01:40:30.341Z,7.95
2023-05-06T01:42:57.583Z,9.15
2023-05-06T01:45:27.715Z,9.10
2023-05-06T01:47:54.710Z,9.38
2023-05-06T01:50:21.643Z,9.93
2023-05-06T01:53:00.011Z,10.05
2023-05-06T01:55:27.110Z,9.45
2023-05-06T01:57:59.291Z,8.98
2023-05-06T02:00:26.357Z,9.20
2023-05-06T02:02:53.079Z,8.77
2023-05-06T02:05:19.863Z,9.07
2023-05-06T02:07:46.407Z,9.07
2023-05-06T02:10:12.977Z,9.52
2023-05-06T02:12:39.554Z,9.13
2023-05-06T02:15:06.737Z,10.18
2023-05-06T02:17:35.871Z,10.30
2023-05-06T02:20:02.406Z,9.52
2023-05-06T02:22:28.919Z,9.43
2023-05-06T02:24:55.451Z,8.82
2023-05-06T02:27:24.625Z,9.30
2023-05-06T02:32:17.651Z,8.35
2023-05-06T02:34:44.233Z,10.40
2023-05-06T02:37:10.820Z,11.40
2023-05-06T02:39:37.363Z,10.10
2023-05-06T02:42:04.114Z,11.00
2023-05-06T02:44:30.784Z,9.75
2023-05-06T02:46:57.311Z,10.82
2023-05-06T02:49:23.875Z,11.15
2023-05-06T02:51:50.395Z,13.05
2023-05-06T02:54:16.939Z,11.43
2023-05-06T02:56:43.708Z,10.93
2023-05-06T02:59:10.297Z,10.68
2023-05-06T03:01:36.886Z,12.93
2023-05-06T03:04:03.755Z,13.98
2023-05-06T03:06:31.564Z,12.48
2023-05-06T03:08:58.098Z,12.07
2023-05-06T03:11:24.689Z,11.35
2023-05-06T03:13:51.354Z,10.50
2023-05-06T03:16:17.904Z,10.52
2023-05-06T03:18:44.811Z,11.15
2023-05-06T03:21:12.610Z,13.35
2023-05-06T03:23:39.142Z,13.38
2023-05-06T03:26:06.034Z,11.95
2023-05-06T03:28:32.672Z,11.50
2023-05-06T03:30:59.451Z,11.73
2023-05-06T03:33:25.998Z,11.10
2023-05-06T03:35:52.546Z,11.48
2023-05-06T03:38:19.143Z,10.75
2023-05-06T03:40:46.074Z,10.43
2023-05-06T03:43:12.748Z,11.23
2023-05-06T03:45:39.285Z,9.73
2023-05-06T03:48:05.927Z,10.60
2023-05-06T03:50:32.593Z,11.10
2023-05-06T03:52:59.339Z,9.77
2023-05-06T03:55:25.932Z,9.48
2023-05-06T03:57:52.578Z,8.88
2023-05-06T04:00:19.339Z,8.15
2023-05-06T04:02:45.918Z,8.88
2023-05-06T04:05:12.691Z,10.20
2023-05-06T04:07:39.371Z,10.27
2023-05-06T04:10:06.734Z,10.40
2023-05-06T04:12:34.356Z,11.25
2023-05-06T04:15:01.103Z,9.60
2023-05-06T04:17:27.715Z,9.63
2023-05-06T04:19:54.287Z,11.60
2023-05-06T04:22:20.927Z,11.13
2023-05-06T04:24:47.607Z,10.95
2023-05-06T04:27:15.095Z,10.02
2023-05-06T04:29:41.699Z,12.23
2023-05-06T04:32:10.315Z,11.55
2023-05-06T04:34:37.034Z,12.35
2023-05-06T04:37:03.751Z,12.43
2023-05-06T04:39:32.074Z,11.45
2023-05-06T04:41:58.647Z,11.65
2023-05-06T04:44:25.244Z,12.00
2023-05-06T04:46:51.785Z,11.13
2023-05-06T04:49:18.311Z,9.65
2023-05-06T04:51:44.857Z,10.57
2023-05-06T04:54:11.369Z,10.20
2023-05-06T04:56:38.188Z,10.60
2023-05-06T04:59:04.700Z,10.77
2023-05-06T05:01:31.284Z,11.63
2023-05-06T05:03:57.795Z,8.50
2023-05-06T05:06:24.337Z,9.50
2023-05-06T05:08:50.986Z,9.20
2023-05-06T05:11:17.574Z,10.15
2023-05-06T05:13:44.193Z,10.35
2023-05-06T05:16:10.841Z,10.18
2023-05-06T05:18:37.482Z,9.98
2023-05-06T05:21:04.302Z,9.05
2023-05-06T05:23:30.991Z,11.20
2023-05-06T05:25:57.530Z,9.48
2023-05-06T05:28:24.115Z,9.10
2023-05-06T05:30:50.732Z,8.85
2023-05-06T05:33:17.371Z,10.27
2023-05-06T05:35:44.028Z,8.40
2023-05-06T05:38:10.971Z,9.35
2023-05-06T05:40:37.554Z,10.23
2023-05-06T05:43:04.129Z,9.98
2023-05-06T05:45:30.652Z,9.23
2023-05-06T05:47:57.242Z,8.82
2023-05-06T05:50:23.996Z,8.38
2023-05-06T05:52:50.505Z,9.93
2023-05-06T05:55:17.056Z,9.15
2023-05-06T05:57:43.610Z,9.80
2023-05-06T06:00:12.267Z,8.93
2023-05-06T06:02:40.224Z,11.35
2023-05-06T06:05:07.700Z,8.80
2023-05-06T06:07:34.374Z,8.30
2023-05-06T06:10:00.976Z,8.95
2023-05-06T06:12:27.530Z,9.77
2023-05-06T06:14:54.037Z,8.77
2023-05-06T06:17:20.636Z,8.52
2023-05-06T06:19:47.257Z,7.57
2023-05-06T06:22:13.832Z,9.10
2023-05-06T06:24:41.026Z,10.25
2023-05-06T06:27:07.621Z,7.68
2023-05-06T06:29:34.171Z,9.77
2023-05-06T06:32:03.940Z,9.75
2023-05-06T06:34:30.730Z,9.65
2023-05-06T06:36:57.266Z,8.50
2023-05-06T06:39:24.969Z,9.60
2023-05-06T06:41:51.550Z,9.00
2023-05-06T06:44:18.090Z,8.60
2023-05-06T06:46:45.007Z,8.13
2023-05-06T06:49:11.597Z,9.00
2023-05-06T06:51:38.251Z,8.77
2023-05-06T06:54:04.866Z,7.20
2023-05-06T06:56:31.922Z,7.70
2023-05-06T06:58:58.488Z,9.25
2023-05-06T07:01:25.187Z,8.20
2023-05-06T07:03:51.833Z,7.38
2023-05-06T07:06:18.385Z,8.88
2023-05-06T07:08:44.897Z,9.20
2023-05-06T07:11:12.161Z,10.93
2023-05-06T07:13:38.664Z,11.32
2023-05-06T07:16:05.297Z,7.43
2023-05-06T07:18:31.972Z,7.88
2023-05-06T07:20:58.522Z,7.20
2023-05-06T07:23:25.074Z,7.22
2023-05-06T07:25:51.605Z,7.35
2023-05-06T07:28:18.172Z,7.90
2023-05-06T07:30:45.577Z,9.10
2023-05-06T07:33:12.240Z,9.07
2023-05-06T07:35:38.801Z,8.43
2023-05-06T07:38:05.397Z,8.32
2023-05-06T07:40:32.128Z,9.05
2023-05-06T07:43:12.110Z,8.95
2023-05-06T07:45:38.728Z,9.00
2023-05-06T07:48:06.016Z,9.05
2023-05-06T07:50:32.823Z,9.48
2023-05-06T07:53:00.202Z,10.65
2023-05-06T07:55:26.785Z,12.50
2023-05-06T07:57:53.409Z,14.77
2023-05-06T08:00:20.178Z,13.88
2023-05-06T08:02:47.812Z,13.07
2023-05-06T08:05:15.230Z,12.65
2023-05-06T08:07:42.496Z,12.90
2023-05-06T08:10:10.197Z,10.20
2023-05-06T08:12:37.437Z,9.07
2023-05-06T08:15:04.346Z,12.13
2023-05-06T08:17:30.995Z,9.73
2023-05-06T08:19:57.549Z,10.10
2023-05-06T08:22:24.264Z,9.48
2023-05-06T08:24:50.975Z,8.50
2023-05-06T08:27:17.525Z,9.95
2023-05-06T08:29:44.031Z,9.55
2023-05-06T08:32:10.955Z,13.32
2023-05-06T08:34:37.599Z,10.93
2023-05-06T08:37:04.290Z,13.13
2023-05-06T08:39:31.515Z,11.40
2023-05-06T08:41:59.545Z,10.88
2023-05-06T08:44:26.721Z,12.20
2023-05-06T08:46:53.542Z,11.23
2023-05-06T08:49:20.104Z,11.57
2023-05-06T08:51:50.671Z,12.57
2023-05-06T08:54:17.936Z,11.98
2023-05-06T08:56:56.322Z,11.77
2023-05-06T08:59:25.724Z,11.88
2023-05-06T09:01:53.398Z,12.45
2023-05-06T09:04:20.086Z,14.82
2023-05-06T09:06:46.854Z,13.80
2023-05-06T09:09:14.857Z,13.68
2023-05-06T09:11:41.427Z,13.73
2023-05-06T09:14:11.129Z,13.30
2023-05-06T09:16:39.186Z,7.95
2023-05-06T09:19:06.247Z,12.07
2023-05-06T09:21:37.764Z,12.38
2023-05-06T09:24:06.276Z,13.18
2023-05-06T09:26:34.393Z,12.52
2023-05-06T09:29:01.342Z,12.00
2023-05-06T09:31:29.189Z,11.13
2023-05-06T09:33:57.264Z,12.02
2023-05-06T09:36:25.893Z,11.73
2023-05-06T09:38:54.022Z,7.70
2023-05-06T09:41:22.834Z,9.65
2023-05-06T09:43:51.044Z,8.50
2023-05-06T09:46:17.784Z,12.07
2023-05-06T09:48:45.972Z,11.80
2023-05-06T09:51:13.262Z,11.70
2023-05-06T09:53:39.867Z,11.73
2023-05-06T09:56:07.574Z,12.18
2023-05-06T09:58:38.252Z,12.68
2023-05-06T10:01:06.785Z,11.10
2023-05-06T10:03:34.265Z,13.70
2023-05-06T10:06:02.273Z,11.88
2023-05-06T10:08:29.549Z,13.00
2023-05-06T10:10:57.014Z,12.98
2023-05-06T10:13:26.888Z,11.02
2023-05-06T10:15:54.239Z,10.60
2023-05-06T10:18:21.748Z,12.93
2023-05-06T10:20:49.524Z,11.88
2023-05-06T10:23:28.394Z,12.02
2023-05-06T10:25:57.718Z,11.75
2023-05-06T10:28:30.981Z,11.65
2023-05-06T10:30:59.393Z,12.77
2023-05-06T10:33:27.199Z,10.93
2023-05-06T10:36:08.729Z,15.27
2023-05-06T10:38:41.251Z,11.45
2023-05-06T10:41:09.686Z,11.82
2023-05-06T10:43:41.541Z,9.48
2023-05-06T10:46:10.797Z,9.65
2023-05-06T10:48:39.957Z,10.75
2023-05-06T10:54:04.219Z,10.27
2023-05-06T10:56:33.249Z,9.73
2023-05-06T10:59:09.648Z,10.40
2023-05-06T11:01:37.745Z,9.27
2023-05-06T11:04:13.151Z,9.27
2023-05-06T11:09:17.319Z,10.07
2023-05-06T11:12:05.128Z,9.05
2023-05-06T11:14:36.868Z,9.93
2023-05-06T11:17:28.770Z,6.85
2023-05-06T11:20:26.529Z,8.13
2023-05-06T11:22:54.117Z,8.07
2023-05-06T11:25:40.092Z,4.93
2023-05-06T11:28:15.435Z,9.55
2023-05-06T11:30:44.557Z,8.85
2023-05-06T11:35:45.127Z,10.60
2023-05-06T11:38:12.241Z,9.95
2023-05-06T11:40:41.624Z,8.48
2023-05-06T11:43:15.493Z,5.68
2023-05-06T11:45:46.787Z,7.05
2023-05-06T11:48:15.057Z,6.60
2023-05-06T11:50:48.990Z,7.15
2023-05-06T11:53:23.470Z,7.38
2023-05-06T11:55:52.903Z,8.05
2023-05-06T11:58:29.425Z,6.32
2023-05-06T12:00:58.446Z,6.15
2023-05-06T12:03:26.711Z,6.18
2023-05-06T12:05:53.594Z,6.20
2023-05-06T12:08:27.868Z,6.90
2023-05-06T12:10:58.616Z,5.85
2023-05-06T12:13:25.402Z,10.32
2023-05-06T12:15:55.092Z,5.13
2023-05-06T12:18:23.781Z,7.80
2023-05-06T12:20:50.453Z,4.68
2023-05-06T12:23:17.857Z,7.22
2023-05-06T12:25:49.105Z,5.85
2023-05-06T12:28:17.512Z,7.20
2023-05-06T12:30:44.807Z,7.53
2023-05-06T12:33:12.401Z,6.80
2023-05-06T12:35:40.010Z,7.25
2023-05-06T12:38:13.583Z,9.25
2023-05-06T12:40:41.326Z,8.70
2023-05-06T12:43:08.259Z,7.40
2023-05-06T12:45:35.187Z,8.60
2023-05-06T12:48:02.968Z,9.63
2023-05-06T12:50:37.144Z,6.43
2023-05-06T12:53:05.167Z,7.93
2023-05-06T12:55:36.223Z,8.70
2023-05-06T12:58:03.940Z,9.60
2023-05-06T13:00:30.609Z,9.23
2023-05-06T13:02:57.209Z,9.90
2023-05-06T13:05:23.815Z,7.93
2023-05-06T13:07:51.176Z,6.85
2023-05-06T13:10:17.709Z,8.13
2023-05-06T13:12:44.260Z,7.18
2023-05-06T13:15:10.975Z,6.57
2023-05-06T13:17:37.687Z,8.73
2023-05-06T13:20:05.452Z,8.68
2023-05-06T13:22:40.308Z,7.50
2023-05-06T13:25:11.531Z,7.47
2023-05-06T13:27:38.316Z,8.50
2023-05-06T13:30:05.791Z,7.28
2023-05-06T13:32:33.054Z,5.97
2023-05-06T13:34:59.788Z,7.32
2023-05-06T13:37:26.352Z,7.57
2023-05-06T13:39:53.010Z,7.60
2023-05-06T13:42:19.625Z,7.00
2023-05-06T13:44:46.204Z,8.88
2023-05-06T13:47:12.726Z,6.55
2023-05-06T13:49:39.227Z,8.45
2023-05-06T13:52:08.012Z,8.05
2023-05-06T13:54:34.984Z,8.57
2023-05-06T13:57:01.484Z,9.10
2023-05-06T13:59:28.016Z,8.38
2023-05-06T14:02:04.140Z,8.70
2023-05-06T14:04:32.210Z,9.07
2023-05-06T14:06:59.216Z,8.05
2023-05-06T14:09:25.762Z,6.82
2023-05-06T14:11:52.254Z,9.30
2023-05-06T14:14:18.788Z,11.63
2023-05-06T14:16:45.592Z,10.55
2023-05-06T14:19:12.140Z,9.82
2023-05-06T14:21:38.673Z,11.40
2023-05-06T14:24:07.571Z,9.82
2023-05-06T14:26:34.604Z,8.85
2023-05-06T14:29:01.208Z,10.38
2023-05-06T14:31:29.524Z,10.63
2023-05-06T14:33:56.401Z,10.90
2023-05-06T14:36:22.955Z,10.48
2023-05-06T14:38:49.492Z,11.48
2023-05-06T14:41:16.242Z,11.45
2023-05-06T14:43:42.805Z,10.32
2023-05-06T14:46:09.458Z,10.57
2023-05-06T14:48:36.025Z,10.65
2023-05-06T14:51:02.557Z,9.57
2023-05-06T14:53:29.191Z,8.57
2023-05-06T14:55:56.506Z,8.32
2023-05-06T14:58:23.185Z,9.18
2023-05-06T15:00:49.889Z,9.40
2023-05-06T15:03:16.631Z,7.97
2023-05-06T15:05:43.325Z,8.68
2023-05-06T15:08:10.145Z,11.50
2023-05-06T15:10:36.815Z,11.82
2023-05-06T15:13:03.715Z,11.50
2023-05-06T15:15:30.393Z,9.65
2023-05-06T15:17:56.985Z,10.38
2023-05-06T15:20:23.614Z,12.15
2023-05-06T15:22:50.194Z,10.65
2023-05-06T15:25:26.559Z,10.63
2023-05-06T15:27:58.340Z,10.15
2023-05-06T15:30:24.869Z,8.60
2023-05-06T15:32:51.474Z,10.43
2023-05-06T15:35:18.020Z,11.05
2023-05-06T15:37:44.546Z,9.70
2023-05-06T15:40:13.915Z,10.55
2023-05-06T15:42:40.753Z,9.93
2023-05-06T15:45:07.809Z,8.43
2023-05-06T15:47:34.411Z,8.95
2023-05-06T15:50:01.663Z,9.80
2023-05-06T15:52:42.686Z,10.32
2023-05-06T15:55:09.950Z,11.65
2023-05-06T15:57:36.602Z,11.43
2023-05-06T16:00:05.144Z,9.50
2023-05-06T16:02:32.714Z,11.02
2023-05-06T16:04:59.662Z,9.05
2023-05-06T16:07:27.701Z,10.20
2023-05-06T16:09:54.208Z,10.00
2023-05-06T16:12:20.777Z,11.57
2023-05-06T16:14:47.359Z,10.48
2023-05-06T16:17:15.720Z,9.93
2023-05-06T16:19:42.273Z,10.50
2023-05-06T16:22:08.842Z,7.80
2023-05-06T16:24:35.368Z,9.00
2023-05-06T16:27:02.400Z,10.30
2023-05-06T16:29:28.954Z,8.50
2023-05-06T16:31:55.638Z,8.82
2023-05-06T16:34:22.367Z,8.15
2023-05-06T16:36:49.248Z,9.00
2023-05-06T16:39:15.884Z,9.35
2023-05-06T16:41:42.572Z,9.30
2023-05-06T16:44:09.093Z,10.20
2023-05-06T16:46:35.633Z,10.65
2023-05-06T16:49:03.809Z,10.45
2023-05-06T16:51:31.200Z,10.07
2023-05-06T16:53:57.748Z,10.43
2023-05-06T16:56:25.362Z,9.38
2023-05-06T16:58:53.122Z,12.85
2023-05-06T17:01:19.788Z,10.10
2023-05-06T17:03:46.413Z,10.43
2023-05-06T17:06:13.382Z,10.65
2023-05-06T17:08:40.062Z,12.18
2023-05-06T17:11:06.874Z,10.20
2023-05-06T17:13:34.125Z,9.80
2023-05-06T17:16:00.974Z,10.85
2023-05-06T17:18:27.642Z,9.40
2023-05-06T17:20:56.713Z,10.07
2023-05-06T17:23:24.499Z,8.77
2023-05-06T17:25:51.420Z,12.60
2023-05-06T17:28:18.883Z,10.43
2023-05-06T17:30:45.914Z,9.73
2023-05-06T17:33:12.741Z,13.13
2023-05-06T17:35:39.450Z,11.50
2023-05-06T17:38:06.101Z,13.00
2023-05-06T17:40:32.656Z,10.70
2023-05-06T17:42:59.433Z,10.82
2023-05-06T17:45:28.193Z,10.98
2023-05-06T17:47:55.158Z,13.00
2023-05-06T17:50:22.416Z,10.23
2023-05-06T17:52:51.103Z,10.35
2023-05-06T17:55:17.913Z,10.52
2023-05-06T17:57:44.727Z,9.55
2023-05-06T18:00:11.768Z,9.60
2023-05-06T18:02:38.517Z,9.57
2023-05-06T18:05:06.495Z,8.30
2023-05-06T18:07:35.759Z,11.25
2023-05-06T18:12:29.050Z,7.25
2023-05-06T18:14:57.474Z,8.32
2023-05-06T18:17:24.109Z,10.95
2023-05-06T18:19:50.793Z,11.98
2023-05-06T18:22:17.390Z,10.88
2023-05-06T18:24:44.149Z,10.68
2023-05-06T18:27:10.896Z,10.18
2023-05-06T18:29:37.432Z,11.82
2023-05-06T18:32:06.515Z,10.73
2023-05-06T18:36:59.668Z,9.63
2023-05-06T18:39:26.513Z,9.55
2023-05-06T18:41:53.046Z,7.82
2023-05-06T18:44:19.606Z,9.02
2023-05-06T18:46:46.223Z,8.10
2023-05-06T18:49:14.088Z,8.95
2023-05-06T18:51:40.914Z,9.02
2023-05-06T18:54:07.642Z,8.68
2023-05-06T18:56:35.510Z,8.27
2023-05-06T18:59:02.139Z,8.80
2023-05-06T19:01:28.833Z,7.72
2023-05-06T19:03:56.700Z,8.23
2023-05-06T19:06:23.472Z,8.77
2023-05-06T19:08:50.128Z,8.27
2023-05-06T19:11:18.942Z,7.75
2023-05-06T19:13:46.285Z,7.87
2023-05-06T19:16:13.955Z,9.50
2023-05-06T19:18:40.643Z,8.43
2023-05-06T19:21:10.015Z,8.18
2023-05-06T19:23:36.742Z,9.43
2023-05-06T19:26:06.278Z,8.00
2023-05-06T19:28:33.452Z,8.52
2023-05-06T19:31:00.018Z,7.50
2023-05-06T19:33:26.963Z,9.32
2023-05-06T19:35:53.504Z,10.52
2023-05-06T19:38:20.483Z,7.90
2023-05-06T19:40:47.026Z,10.38
2023-05-06T19:43:13.623Z,9.90
2023-05-06T19:45:40.235Z,8.60
2023-05-06T19:48:08.582Z,8.98
2023-05-06T19:50:35.438Z,9.73
2023-05-06T19:53:02.066Z,8.23
2023-05-06T19:55:28.627Z,9.05
2023-05-06T19:57:58.884Z,8.88
2023-05-06T20:00:28.017Z,8.27
2023-05-06T20:02:56.507Z,8.10
2023-05-06T20:05:23.642Z,7.82
2023-05-06T20:07:51.281Z,7.97
2023-05-06T20:10:17.810Z,7.43
2023-05-06T20:12:44.468Z,7.40
2023-05-06T20:15:11.566Z,7.72
2023-05-06T20:17:38.541Z,6.70
2023-05-06T20:20:09.733Z,6.50
2023-05-06T20:22:37.490Z,6.38
2023-05-06T20:25:13.129Z,6.22
2023-05-06T20:27:40.035Z,8.38
2023-05-06T20:30:08.113Z,7.47
2023-05-06T20:32:34.936Z,6.53
2023-05-06T20:35:01.510Z,5.93
2023-05-06T20:37:28.694Z,6.22
2023-05-06T20:39:55.346Z,7.85
2023-05-06T20:42:21.887Z,7.20
2023-05-06T20:44:51.270Z,7.10
2023-05-06T20:49:44.317Z,8.15
2023-05-06T20:52:14.474Z,7.32
2023-05-06T20:54:45.290Z,7.80
2023-05-06T20:57:13.872Z,8.52
2023-05-06T20:59:40.391Z,6.65
2023-05-06T21:02:07.078Z,7.95
2023-05-06T21:04:33.767Z,6.60
2023-05-06T21:07:00.395Z,7.45
2023-05-06T21:09:28.037Z,6.25
2023-05-06T21:11:55.654Z,6.25
2023-05-06T21:14:24.718Z,6.75
2023-05-06T21:16:52.111Z,5.55
2023-05-06T21:19:22.234Z,6.93
2023-05-06T21:21:48.820Z,7.82
2023-05-06T21:24:15.745Z,5.95
2023-05-06T21:26:42.349Z,6.05
2023-05-06T21:29:08.900Z,7.13
2023-05-06T21:31:35.587Z,5.22
2023-05-06T21:34:03.465Z,6.20
2023-05-06T21:36:29.998Z,6.15
2023-05-06T21:39:05.532Z,6.70
2023-05-06T21:41:32.103Z,6.30
2023-05-06T21:43:58.645Z,6.43
2023-05-06T21:46:25.488Z,6.28
2023-05-06T21:48:52.149Z,6.68
2023-05-06T21:51:18.683Z,6.63
2023-05-06T21:53:49.721Z,6.43
2023-05-06T21:56:17.431Z,7.30
2023-05-06T21:58:44.130Z,7.47
2023-05-06T22:01:10.822Z,7.05
2023-05-06T22:03:37.639Z,6.72
2023-05-06T22:06:04.904Z,7.53
2023-05-06T22:08:31.679Z,5.85
2023-05-06T22:10:58.210Z,7.35
2023-05-06T22:13:26.795Z,5.90
2023-05-06T22:15:53.957Z,6.55
2023-05-06T22:18:20.689Z,6.10
2023-05-06T22:20:49.216Z,6.40
2023-05-06T22:23:15.831Z,7.28
2023-05-06T22:25:42.360Z,7.32
2023-05-06T22:28:08.934Z,6.05
2023-05-06T22:30:35.637Z,6.18
2023-05-06T22:33:02.225Z,5.63
2023-05-06T22:35:28.852Z,6.63
2023-05-06T22:37:55.400Z,6.70
2023-05-06T22:40:21.943Z,7.03
2023-05-06T22:42:48.468Z,6.13
2023-05-06T22:45:15.056Z,5.32
2023-05-06T22:47:41.683Z,5.47
2023-05-06T22:50:08.966Z,5.78
2023-05-06T22:52:35.534Z,5.25
2023-05-06T22:55:02.601Z,5.50
2023-05-06T22:57:29.161Z,6.25
2023-05-06T22:59:55.711Z,5.70
2023-05-06T23:02:22.282Z,5.50
2023-05-06T23:04:48.933Z,7.30
2023-05-06T23:07:15.807Z,6.07
2023-05-06T23:09:42.341Z,6.70
2023-05-06T23:12:08.921Z,7.32
2023-05-06T23:14:35.542Z,7.00
2023-05-06T23:17:02.176Z,8.02
2023-05-06T23:19:38.638Z,7.32
2023-05-06T23:22:07.582Z,8.20
2023-05-06T23:24:34.117Z,7.40
2023-05-06T23:27:01.211Z,8.82
2023-05-06T23:29:27.788Z,8.27
2023-05-06T23:31:54.554Z,10.13
2023-05-06T23:34:21.110Z,10.02
2023-05-06T23:36:50.966Z,10.15
2023-05-06T23:39:17.652Z,10.68
2023-05-06T23:41:47.019Z,10.35
2023-05-06T23:46:40.182Z,9.55
2023-05-06T23:49:06.818Z,11.15
2023-05-06T23:51:33.473Z,11.05
2023-05-06T23:53:59.976Z,12.00
2023-05-06T23:56:26.510Z,11.38
2023-05-06T23:58:53.038Z,11.65
